sensor_id;sensor_type;location;lat;lon;timestamp;P1;durP1;ratioP1;P2;durP2;ratioP2
26702;SDS011;14316;51.074;3.704;2023-05-31T00:01:17;9.32;;;7.40;;
26702;SDS011;14316;51.074;3.704;2023-05-31T00:03:42;9.18;;;7.30;;
26702;SDS011;14316;51.074;3.704;2023-05-31T00:06:11;8.68;;;7.22;;
26702;SDS011;14316;51.074;3.704;2023-05-31T00:08:37;8.20;;;7.40;;
26702;SDS011;14316;51.074;3.704;2023-05-31T00:11:04;9.88;;;6.78;;
26702;SDS011;14316;51.074;3.704;2023-05-31T00:13:30;9.48;;;7.47;;
26702;SDS011;14316;51.074;3.704;2023-05-31T00:15:56;13.35;;;7.55;;
26702;SDS011;14316;51.074;3.704;2023-05-31T00:18:22;9.85;;;7.38;;
26702;SDS011;14316;51.074;3.704;2023-05-31T00:20:49;9.50;;;7.05;;
26702;SDS011;14316;51.074;3.704;2023-05-31T00:23:15;8.55;;;7.63;;
26702;SDS011;14316;51.074;3.704;2023-05-31T00:25:40;10.70;;;8.02;;
26702;SDS011;14316;51.074;3.704;2023-05-31T00:28:06;9.25;;;8.35;;
26702;SDS011;14316;51.074;3.704;2023-05-31T00:30:32;7.93;;;7.13;;
26702;SDS011;14316;51.074;3.704;2023-05-31T00:32:58;7.85;;;7.15;;
26702;SDS011;14316;51.074;3.704;2023-05-31T00:35:24;8.25;;;7.45;;
26702;SDS011;14316;51.074;3.704;2023-05-31T00:37:50;9.48;;;7.78;;
26702;SDS011;14316;51.074;3.704;2023-05-31T00:40:15;8.20;;;7.40;;
26702;SDS011;14316;51.074;3.704;2023-05-31T00:42:41;8.63;;;7.65;;
26702;SDS011;14316;51.074;3.704;2023-05-31T00:45:07;8.85;;;7.25;;
26702;SDS011;14316;51.074;3.704;2023-05-31T00:47:34;9.88;;;8.20;;
26702;SDS011;14316;51.074;3.704;2023-05-31T00:50:00;8.70;;;7.90;;
26702;SDS011;14316;51.074;3.704;2023-05-31T00:52:26;8.00;;;7.30;;
26702;SDS011;14316;51.074;3.704;2023-05-31T00:54:53;7.93;;;7.22;;
26702;SDS011;14316;51.074;3.704;2023-05-31T00:57:20;9.07;;;7.82;;
26702;SDS011;14316;51.074;3.704;2023-05-31T00:59:46;8.52;;;7.72;;
26702;SDS011;14316;51.074;3.704;2023-05-31T01:02:12;9.05;;;8.15;;
26702;SDS011;14316;51.074;3.704;2023-05-31T01:04:39;8.60;;;7.78;;
26702;SDS011;14316;51.074;3.704;2023-05-31T01:07:06;10.10;;;8.38;;
26702;SDS011;14316;51.074;3.704;2023-05-31T01:09:33;8.63;;;7.82;;
26702;SDS011;14316;51.074;3.704;2023-05-31T01:12:09;8.77;;;7.57;;
26702;SDS011;14316;51.074;3.704;2023-05-31T01:15:12;9.63;;;8.20;;
26702;SDS011;14316;51.074;3.704;2023-05-31T01:20:21;9.77;;;8.68;;
26702;SDS011;14316;51.074;3.704;2023-05-31T01:25:44;9.80;;;7.70;;
26702;SDS011;14316;51.074;3.704;2023-05-31T01:28:11;8.35;;;7.55;;
26702;SDS011;14316;51.074;3.704;2023-05-31T01:30:39;8.85;;;8.00;;
26702;SDS011;14316;51.074;3.704;2023-05-31T01:33:08;10.25;;;8.05;;
26702;SDS011;14316;51.074;3.704;2023-05-31T01:38:03;8.68;;;7.78;;
26702;SDS011;14316;51.074;3.704;2023-05-31T01:40:29;9.52;;;8.20;;
26702;SDS011;14316;51.074;3.704;2023-05-31T01:42:55;9.73;;;8.38;;
26702;SDS011;14316;51.074;3.704;2023-05-31T01:45:22;9.82;;;8.65;;
26702;SDS011;14316;51.074;3.704;2023-05-31T01:47:54;9.07;;;8.27;;
26702;SDS011;14316;51.074;3.704;2023-05-31T01:52:49;9.50;;;8.50;;
26702;SDS011;14316;51.074;3.704;2023-05-31T01:55:15;9.70;;;8.65;;
26702;SDS011;14316;51.074;3.704;2023-05-31T01:57:42;9.82;;;8.93;;
26702;SDS011;14316;51.074;3.704;2023-05-31T02:00:09;9.88;;;8.75;;
26702;SDS011;14316;51.074;3.704;2023-05-31T02:02:38;9.52;;;8.70;;
26702;SDS011;14316;51.074;3.704;2023-05-31T02:05:08;11.25;;;8.50;;
26702;SDS011;14316;51.074;3.704;2023-05-31T02:07:40;9.75;;;8.88;;
26702;SDS011;14316;51.074;3.704;2023-05-31T02:10:07;10.52;;;8.93;;
26702;SDS011;14316;51.074;3.704;2023-05-31T02:12:34;10.02;;;9.13;;
26702;SDS011;14316;51.074;3.704;2023-05-31T02:14:59;9.65;;;8.75;;
26702;SDS011;14316;51.074;3.704;2023-05-31T02:17:25;9.98;;;8.88;;
26702;SDS011;14316;51.074;3.704;2023-05-31T02:19:54;12.77;;;9.50;;
26702;SDS011;14316;51.074;3.704;2023-05-31T02:22:20;10.98;;;9.75;;
26702;SDS011;14316;51.074;3.704;2023-05-31T02:24:46;10.27;;;9.27;;
26702;SDS011;14316;51.074;3.704;2023-05-31T02:27:13;11.07;;;9.93;;
26702;SDS011;14316;51.074;3.704;2023-05-31T02:29:39;10.75;;;9.75;;
26702;SDS011;14316;51.074;3.704;2023-05-31T02:32:05;11.85;;;10.68;;
26702;SDS011;14316;51.074;3.704;2023-05-31T02:34:32;11.85;;;10.65;;
26702;SDS011;14316;51.074;3.704;2023-05-31T02:36:58;11.32;;;9.52;;
26702;SDS011;14316;51.074;3.704;2023-05-31T02:39:25;12.88;;;10.25;;
26702;SDS011;14316;51.074;3.704;2023-05-31T02:41:50;11.32;;;10.07;;
26702;SDS011;14316;51.074;3.704;2023-05-31T02:44:16;11.82;;;10.43;;
26702;SDS011;14316;51.074;3.704;2023-05-31T02:46:42;12.38;;;11.23;;
26702;SDS011;14316;51.074;3.704;2023-05-31T02:49:08;11.80;;;10.65;;
26702;SDS011;14316;51.074;3.704;2023-05-31T02:51:34;12.45;;;11.13;;
26702;SDS011;14316;51.074;3.704;2023-05-31T02:54:00;12.82;;;11.57;;
26702;SDS011;14316;51.074;3.704;2023-05-31T02:56:26;11.57;;;10.48;;
26702;SDS011;14316;51.074;3.704;2023-05-31T02:58:52;13.15;;;11.80;;
26702;SDS011;14316;51.074;3.704;2023-05-31T03:01:17;12.85;;;11.52;;
26702;SDS011;14316;51.074;3.704;2023-05-31T03:03:43;12.25;;;11.05;;
26702;SDS011;14316;51.074;3.704;2023-05-31T03:06:09;11.55;;;10.40;;
26702;SDS011;14316;51.074;3.704;2023-05-31T03:08:36;12.43;;;11.23;;
26702;SDS011;14316;51.074;3.704;2023-05-31T03:11:02;12.98;;;11.55;;
26702;SDS011;14316;51.074;3.704;2023-05-31T03:13:28;13.00;;;11.68;;
26702;SDS011;14316;51.074;3.704;2023-05-31T03:15:54;13.80;;;11.63;;
26702;SDS011;14316;51.074;3.704;2023-05-31T03:18:20;13.57;;;12.15;;
26702;SDS011;14316;51.074;3.704;2023-05-31T03:20:45;13.73;;;12.32;;
26702;SDS011;14316;51.074;3.704;2023-05-31T03:23:11;15.02;;;11.95;;
26702;SDS011;14316;51.074;3.704;2023-05-31T03:25:37;12.70;;;10.65;;
26702;SDS011;14316;51.074;3.704;2023-05-31T03:28:03;15.00;;;12.02;;
26702;SDS011;14316;51.074;3.704;2023-05-31T03:30:29;13.35;;;11.93;;
26702;SDS011;14316;51.074;3.704;2023-05-31T03:32:54;13.38;;;11.95;;
26702;SDS011;14316;51.074;3.704;2023-05-31T03:35:20;14.13;;;12.60;;
26702;SDS011;14316;51.074;3.704;2023-05-31T03:37:46;17.98;;;12.40;;
26702;SDS011;14316;51.074;3.704;2023-05-31T03:40:12;13.23;;;11.80;;
26702;SDS011;14316;51.074;3.704;2023-05-31T03:42:37;16.52;;;12.75;;
26702;SDS011;14316;51.074;3.704;2023-05-31T03:45:03;13.65;;;11.85;;
26702;SDS011;14316;51.074;3.704;2023-05-31T03:47:30;12.68;;;11.20;;
26702;SDS011;14316;51.074;3.704;2023-05-31T03:49:55;14.73;;;11.05;;
26702;SDS011;14316;51.074;3.704;2023-05-31T03:52:21;12.43;;;11.13;;
26702;SDS011;14316;51.074;3.704;2023-05-31T03:54:47;12.85;;;10.82;;
26702;SDS011;14316;51.074;3.704;2023-05-31T03:57:13;13.73;;;12.32;;
26702;SDS011;14316;51.074;3.704;2023-05-31T03:59:39;12.65;;;10.73;;
26702;SDS011;14316;51.074;3.704;2023-05-31T04:02:04;15.13;;;12.13;;
26702;SDS011;14316;51.074;3.704;2023-05-31T04:04:30;12.85;;;11.55;;
26702;SDS011;14316;51.074;3.704;2023-05-31T04:06:56;13.55;;;11.07;;
26702;SDS011;14316;51.074;3.704;2023-05-31T04:09:21;15.68;;;11.50;;
26702;SDS011;14316;51.074;3.704;2023-05-31T04:11:49;13.50;;;11.60;;
26702;SDS011;14316;51.074;3.704;2023-05-31T04:14:14;14.88;;;11.80;;
26702;SDS011;14316;51.074;3.704;2023-05-31T04:16:40;17.83;;;11.10;;
26702;SDS011;14316;51.074;3.704;2023-05-31T04:19:09;14.35;;;12.13;;
26702;SDS011;14316;51.074;3.704;2023-05-31T04:21:36;13.23;;;11.50;;
26702;SDS011;14316;51.074;3.704;2023-05-31T04:24:05;14.15;;;11.82;;
26702;SDS011;14316;51.074;3.704;2023-05-31T04:26:31;15.77;;;11.93;;
26702;SDS011;14316;51.074;3.704;2023-05-31T04:28:58;13.13;;;11.15;;
26702;SDS011;14316;51.074;3.704;2023-05-31T04:31:25;13.52;;;11.77;;
26702;SDS011;14316;51.074;3.704;2023-05-31T04:33:53;14.88;;;10.52;;
26702;SDS011;14316;51.074;3.704;2023-05-31T04:36:22;17.60;;;12.23;;
26702;SDS011;14316;51.074;3.704;2023-05-31T04:38:51;15.05;;;12.25;;
26702;SDS011;14316;51.074;3.704;2023-05-31T04:41:20;15.57;;;12.00;;
26702;SDS011;14316;51.074;3.704;2023-05-31T04:43:49;17.50;;;12.45;;
26702;SDS011;14316;51.074;3.704;2023-05-31T04:46:15;13.98;;;11.38;;
26702;SDS011;14316;51.074;3.704;2023-05-31T04:48:41;13.68;;;10.90;;
26702;SDS011;14316;51.074;3.704;2023-05-31T04:51:07;16.27;;;11.98;;
26702;SDS011;14316;51.074;3.704;2023-05-31T04:53:32;15.27;;;12.50;;
26702;SDS011;14316;51.074;3.704;2023-05-31T04:55:58;15.07;;;11.80;;
26702;SDS011;14316;51.074;3.704;2023-05-31T04:58:29;13.60;;;11.60;;
26702;SDS011;14316;51.074;3.704;2023-05-31T05:00:56;14.52;;;11.30;;
26702;SDS011;14316;51.074;3.704;2023-05-31T05:03:22;13.57;;;11.00;;
26702;SDS011;14316;51.074;3.704;2023-05-31T05:05:50;13.15;;;11.75;;
26702;SDS011;14316;51.074;3.704;2023-05-31T05:08:15;14.90;;;11.20;;
26702;SDS011;14316;51.074;3.704;2023-05-31T05:10:43;13.82;;;11.30;;
26702;SDS011;14316;51.074;3.704;2023-05-31T05:13:09;13.93;;;11.82;;
26702;SDS011;14316;51.074;3.704;2023-05-31T05:15:35;14.48;;;11.88;;
26702;SDS011;14316;51.074;3.704;2023-05-31T05:18:01;15.50;;;11.50;;
26702;SDS011;14316;51.074;3.704;2023-05-31T05:20:27;15.23;;;11.32;;
26702;SDS011;14316;51.074;3.704;2023-05-31T05:22:53;16.13;;;12.18;;
26702;SDS011;14316;51.074;3.704;2023-05-31T05:25:19;14.48;;;12.07;;
26702;SDS011;14316;51.074;3.704;2023-05-31T05:27:46;13.73;;;12.13;;
26702;SDS011;14316;51.074;3.704;2023-05-31T05:30:12;18.85;;;12.55;;
26702;SDS011;14316;51.074;3.704;2023-05-31T05:32:38;17.55;;;11.50;;
26702;SDS011;14316;51.074;3.704;2023-05-31T05:35:04;14.65;;;11.15;;
26702;SDS011;14316;51.074;3.704;2023-05-31T05:37:31;18.00;;;12.00;;
26702;SDS011;14316;51.074;3.704;2023-05-31T05:39:57;17.48;;;12.23;;
26702;SDS011;14316;51.074;3.704;2023-05-31T05:42:25;16.48;;;12.45;;
26702;SDS011;14316;51.074;3.704;2023-05-31T05:44:52;19.58;;;13.07;;
26702;SDS011;14316;51.074;3.704;2023-05-31T05:47:17;20.40;;;12.40;;
26702;SDS011;14316;51.074;3.704;2023-05-31T05:49:44;17.40;;;12.43;;
26702;SDS011;14316;51.074;3.704;2023-05-31T05:52:09;18.27;;;12.23;;
26702;SDS011;14316;51.074;3.704;2023-05-31T05:54:35;18.00;;;12.95;;
26702;SDS011;14316;51.074;3.704;2023-05-31T05:57:01;17.38;;;13.25;;
26702;SDS011;14316;51.074;3.704;2023-05-31T05:59:28;17.02;;;11.98;;
26702;SDS011;14316;51.074;3.704;2023-05-31T06:01:54;17.95;;;12.30;;
26702;SDS011;14316;51.074;3.704;2023-05-31T06:04:20;15.43;;;12.70;;
26702;SDS011;14316;51.074;3.704;2023-05-31T06:06:45;16.35;;;12.77;;
26702;SDS011;14316;51.074;3.704;2023-05-31T06:09:11;16.92;;;12.60;;
26702;SDS011;14316;51.074;3.704;2023-05-31T06:11:37;14.13;;;12.63;;
26702;SDS011;14316;51.074;3.704;2023-05-31T06:14:03;17.58;;;12.13;;
26702;SDS011;14316;51.074;3.704;2023-05-31T06:16:29;17.60;;;12.40;;
26702;SDS011;14316;51.074;3.704;2023-05-31T06:18:54;18.48;;;13.27;;
26702;SDS011;14316;51.074;3.704;2023-05-31T06:21:20;18.70;;;13.43;;
26702;SDS011;14316;51.074;3.704;2023-05-31T06:23:46;18.88;;;12.93;;
26702;SDS011;14316;51.074;3.704;2023-05-31T06:26:12;19.10;;;13.35;;
26702;SDS011;14316;51.074;3.704;2023-05-31T06:28:38;16.17;;;11.88;;
26702;SDS011;14316;51.074;3.704;2023-05-31T06:31:04;18.55;;;12.77;;
26702;SDS011;14316;51.074;3.704;2023-05-31T06:33:30;16.63;;;11.77;;
26702;SDS011;14316;51.074;3.704;2023-05-31T06:35:55;20.35;;;13.18;;
26702;SDS011;14316;51.074;3.704;2023-05-31T06:38:21;17.88;;;12.30;;
26702;SDS011;14316;51.074;3.704;2023-05-31T06:40:47;18.58;;;13.73;;
26702;SDS011;14316;51.074;3.704;2023-05-31T06:43:13;20.88;;;12.90;;
26702;SDS011;14316;51.074;3.704;2023-05-31T06:45:40;18.60;;;12.85;;
26702;SDS011;14316;51.074;3.704;2023-05-31T06:48:07;17.08;;;13.93;;
26702;SDS011;14316;51.074;3.704;2023-05-31T06:50:34;19.90;;;14.60;;
26702;SDS011;14316;51.074;3.704;2023-05-31T06:53:00;23.80;;;15.43;;
26702;SDS011;14316;51.074;3.704;2023-05-31T06:55:25;17.27;;;13.68;;
26702;SDS011;14316;51.074;3.704;2023-05-31T06:57:51;19.52;;;15.80;;
26702;SDS011;14316;51.074;3.704;2023-05-31T07:00:17;21.80;;;17.60;;
26702;SDS011;14316;51.074;3.704;2023-05-31T07:02:45;24.70;;;19.48;;
26702;SDS011;14316;51.074;3.704;2023-05-31T07:05:11;24.55;;;19.40;;
26702;SDS011;14316;51.074;3.704;2023-05-31T07:07:36;21.25;;;17.17;;
26702;SDS011;14316;51.074;3.704;2023-05-31T07:10:02;28.58;;;21.80;;
26702;SDS011;14316;51.074;3.704;2023-05-31T07:12:28;28.17;;;18.77;;
26702;SDS011;14316;51.074;3.704;2023-05-31T07:14:54;34.70;;;26.48;;
26702;SDS011;14316;51.074;3.704;2023-05-31T07:17:20;41.38;;;28.95;;
26702;SDS011;14316;51.074;3.704;2023-05-31T07:19:46;38.25;;;33.47;;
26702;SDS011;14316;51.074;3.704;2023-05-31T07:22:16;40.63;;;30.38;;
26702;SDS011;14316;51.074;3.704;2023-05-31T07:24:43;33.42;;;22.17;;
26702;SDS011;14316;51.074;3.704;2023-05-31T07:27:09;25.40;;;19.17;;
26702;SDS011;14316;51.074;3.704;2023-05-31T07:29:36;25.02;;;19.23;;
26702;SDS011;14316;51.074;3.704;2023-05-31T07:32:02;31.25;;;20.85;;
26702;SDS011;14316;51.074;3.704;2023-05-31T07:34:28;27.40;;;19.08;;
26702;SDS011;14316;51.074;3.704;2023-05-31T07:36:53;33.45;;;21.58;;
26702;SDS011;14316;51.074;3.704;2023-05-31T07:39:23;33.58;;;22.65;;
26702;SDS011;14316;51.074;3.704;2023-05-31T07:41:49;25.38;;;18.13;;
26702;SDS011;14316;51.074;3.704;2023-05-31T07:44:15;21.90;;;15.60;;
26702;SDS011;14316;51.074;3.704;2023-05-31T07:46:43;21.40;;;16.30;;
26702;SDS011;14316;51.074;3.704;2023-05-31T07:49:09;29.95;;;20.90;;
26702;SDS011;14316;51.074;3.704;2023-05-31T07:51:35;24.08;;;20.73;;
26702;SDS011;14316;51.074;3.704;2023-05-31T07:54:01;25.00;;;20.00;;
26702;SDS011;14316;51.074;3.704;2023-05-31T07:56:27;19.83;;;15.18;;
26702;SDS011;14316;51.074;3.704;2023-05-31T07:58:53;19.92;;;15.73;;
26702;SDS011;14316;51.074;3.704;2023-05-31T08:01:19;24.15;;;15.40;;
26702;SDS011;14316;51.074;3.704;2023-05-31T08:03:45;23.42;;;18.98;;
26702;SDS011;14316;51.074;3.704;2023-05-31T08:06:11;24.85;;;17.52;;
26702;SDS011;14316;51.074;3.704;2023-05-31T08:08:36;23.67;;;17.17;;
26702;SDS011;14316;51.074;3.704;2023-05-31T08:11:02;24.10;;;19.02;;
26702;SDS011;14316;51.074;3.704;2023-05-31T08:13:28;21.80;;;18.60;;
26702;SDS011;14316;51.074;3.704;2023-05-31T08:15:54;34.08;;;23.92;;
26702;SDS011;14316;51.074;3.704;2023-05-31T08:18:21;30.23;;;22.17;;
26702;SDS011;14316;51.074;3.704;2023-05-31T08:20:47;25.08;;;18.70;;
26702;SDS011;14316;51.074;3.704;2023-05-31T08:23:16;25.20;;;19.05;;
26702;SDS011;14316;51.074;3.704;2023-05-31T08:25:43;25.58;;;19.25;;
26702;SDS011;14316;51.074;3.704;2023-05-31T08:28:09;27.85;;;21.20;;
26702;SDS011;14316;51.074;3.704;2023-05-31T08:30:35;30.63;;;22.77;;
26702;SDS011;14316;51.074;3.704;2023-05-31T08:33:01;29.77;;;21.23;;
26702;SDS011;14316;51.074;3.704;2023-05-31T08:35:26;23.13;;;18.30;;
26702;SDS011;14316;51.074;3.704;2023-05-31T08:37:52;22.55;;;17.75;;
26702;SDS011;14316;51.074;3.704;2023-05-31T08:40:19;17.15;;;12.27;;
26702;SDS011;14316;51.074;3.704;2023-05-31T08:45:17;21.20;;;17.05;;
26702;SDS011;14316;51.074;3.704;2023-05-31T08:47:43;19.63;;;14.80;;
26702;SDS011;14316;51.074;3.704;2023-05-31T08:50:28;19.20;;;13.07;;
26702;SDS011;14316;51.074;3.704;2023-05-31T08:52:57;24.65;;;16.00;;
26702;SDS011;14316;51.074;3.704;2023-05-31T08:55:23;17.67;;;13.80;;
26702;SDS011;14316;51.074;3.704;2023-05-31T08:57:50;19.63;;;14.60;;
26702;SDS011;14316;51.074;3.704;2023-05-31T09:00:16;19.65;;;14.63;;
26702;SDS011;14316;51.074;3.704;2023-05-31T09:02:44;17.42;;;13.48;;
26702;SDS011;14316;51.074;3.704;2023-05-31T09:05:11;22.20;;;14.50;;
26702;SDS011;14316;51.074;3.704;2023-05-31T09:07:38;20.17;;;13.15;;
26702;SDS011;14316;51.074;3.704;2023-05-31T09:10:05;17.40;;;10.73;;
26702;SDS011;14316;51.074;3.704;2023-05-31T09:12:33;21.95;;;12.95;;
26702;SDS011;14316;51.074;3.704;2023-05-31T09:14:59;15.73;;;11.68;;
26702;SDS011;14316;51.074;3.704;2023-05-31T09:17:25;15.73;;;12.10;;
26702;SDS011;14316;51.074;3.704;2023-05-31T09:19:52;20.75;;;15.23;;
26702;SDS011;14316;51.074;3.704;2023-05-31T09:22:22;20.67;;;12.60;;
26702;SDS011;14316;51.074;3.704;2023-05-31T09:24:49;23.23;;;14.07;;
26702;SDS011;14316;51.074;3.704;2023-05-31T09:27:15;20.17;;;13.63;;
26702;SDS011;14316;51.074;3.704;2023-05-31T09:29:42;18.58;;;12.98;;
26702;SDS011;14316;51.074;3.704;2023-05-31T09:32:08;21.80;;;14.30;;
26702;SDS011;14316;51.074;3.704;2023-05-31T09:34:34;17.58;;;12.43;;
26702;SDS011;14316;51.074;3.704;2023-05-31T09:37:00;26.15;;;12.75;;
26702;SDS011;14316;51.074;3.704;2023-05-31T09:39:26;19.45;;;12.05;;
26702;SDS011;14316;51.074;3.704;2023-05-31T09:41:53;17.77;;;12.02;;
26702;SDS011;14316;51.074;3.704;2023-05-31T09:44:25;18.63;;;13.52;;
26702;SDS011;14316;51.074;3.704;2023-05-31T09:46:52;19.80;;;12.32;;
26702;SDS011;14316;51.074;3.704;2023-05-31T09:49:17;17.83;;;11.90;;
26702;SDS011;14316;51.074;3.704;2023-05-31T09:51:51;17.80;;;11.93;;
26702;SDS011;14316;51.074;3.704;2023-05-31T09:54:18;20.52;;;12.70;;
26702;SDS011;14316;51.074;3.704;2023-05-31T09:56:48;22.00;;;11.85;;
26702;SDS011;14316;51.074;3.704;2023-05-31T09:59:14;19.77;;;11.38;;
26702;SDS011;14316;51.074;3.704;2023-05-31T10:01:41;17.65;;;11.00;;
26702;SDS011;14316;51.074;3.704;2023-05-31T10:04:07;16.00;;;10.63;;
26702;SDS011;14316;51.074;3.704;2023-05-31T10:06:33;15.15;;;10.05;;
26702;SDS011;14316;51.074;3.704;2023-05-31T10:09:03;18.85;;;9.73;;
26702;SDS011;14316;51.074;3.704;2023-05-31T10:11:33;14.60;;;9.63;;
26702;SDS011;14316;51.074;3.704;2023-05-31T10:14:01;13.87;;;9.07;;
26702;SDS011;14316;51.074;3.704;2023-05-31T10:16:45;15.52;;;9.93;;
26702;SDS011;14316;51.074;3.704;2023-05-31T10:19:16;14.77;;;10.18;;
26702;SDS011;14316;51.074;3.704;2023-05-31T10:21:47;16.52;;;9.38;;
26702;SDS011;14316;51.074;3.704;2023-05-31T10:24:17;14.70;;;10.00;;
26702;SDS011;14316;51.074;3.704;2023-05-31T10:29:35;12.77;;;9.00;;
26702;SDS011;14316;51.074;3.704;2023-05-31T10:32:16;14.90;;;9.70;;
26702;SDS011;14316;51.074;3.704;2023-05-31T10:34:48;17.98;;;7.90;;
26702;SDS011;14316;51.074;3.704;2023-05-31T10:37:15;15.02;;;9.23;;
26702;SDS011;14316;51.074;3.704;2023-05-31T10:45:18;14.20;;;9.73;;
26702;SDS011;14316;51.074;3.704;2023-05-31T10:50:57;20.67;;;9.30;;
26702;SDS011;14316;51.074;3.704;2023-05-31T10:53:39;13.88;;;8.32;;
26702;SDS011;14316;51.074;3.704;2023-05-31T10:56:09;10.68;;;7.13;;
26702;SDS011;14316;51.074;3.704;2023-05-31T10:58:36;15.50;;;8.27;;
26702;SDS011;14316;51.074;3.704;2023-05-31T11:03:35;13.95;;;8.10;;
26702;SDS011;14316;51.074;3.704;2023-05-31T11:06:09;10.40;;;7.88;;
26702;SDS011;14316;51.074;3.704;2023-05-31T11:08:38;14.63;;;7.97;;
26702;SDS011;14316;51.074;3.704;2023-05-31T11:14:05;13.35;;;7.65;;
26702;SDS011;14316;51.074;3.704;2023-05-31T11:19:15;12.80;;;8.88;;
26702;SDS011;14316;51.074;3.704;2023-05-31T11:21:45;22.25;;;10.23;;
26702;SDS011;14316;51.074;3.704;2023-05-31T11:24:24;17.75;;;10.07;;
26702;SDS011;14316;51.074;3.704;2023-05-31T11:26:53;17.45;;;10.05;;
26702;SDS011;14316;51.074;3.704;2023-05-31T11:29:21;19.65;;;9.85;;
26702;SDS011;14316;51.074;3.704;2023-05-31T11:34:24;17.10;;;8.18;;
26702;SDS011;14316;51.074;3.704;2023-05-31T11:36:59;13.90;;;8.57;;
26702;SDS011;14316;51.074;3.704;2023-05-31T11:39:26;17.30;;;7.97;;
26702;SDS011;14316;51.074;3.704;2023-05-31T11:41:55;14.35;;;8.98;;
26702;SDS011;14316;51.074;3.704;2023-05-31T11:44:31;12.93;;;9.32;;
26702;SDS011;14316;51.074;3.704;2023-05-31T11:47:04;17.02;;;9.20;;
26702;SDS011;14316;51.074;3.704;2023-05-31T11:49:30;14.82;;;8.43;;
26702;SDS011;14316;51.074;3.704;2023-05-31T11:52:00;13.82;;;8.88;;
26702;SDS011;14316;51.074;3.704;2023-05-31T11:54:27;14.43;;;8.43;;
26702;SDS011;14316;51.074;3.704;2023-05-31T11:57:00;13.95;;;8.52;;
26702;SDS011;14316;51.074;3.704;2023-05-31T11:59:32;13.75;;;8.32;;
26702;SDS011;14316;51.074;3.704;2023-05-31T12:01:59;15.23;;;8.10;;
26702;SDS011;14316;51.074;3.704;2023-05-31T12:04:29;15.10;;;8.02;;
26702;SDS011;14316;51.074;3.704;2023-05-31T12:07:01;10.70;;;7.97;;
26702;SDS011;14316;51.074;3.704;2023-05-31T12:09:27;12.35;;;7.65;;
26702;SDS011;14316;51.074;3.704;2023-05-31T12:11:53;13.73;;;8.07;;
26702;SDS011;14316;51.074;3.704;2023-05-31T12:14:23;12.88;;;8.13;;
26702;SDS011;14316;51.074;3.704;2023-05-31T12:16:53;11.75;;;7.93;;
26702;SDS011;14316;51.074;3.704;2023-05-31T12:19:19;13.73;;;7.75;;
26702;SDS011;14316;51.074;3.704;2023-05-31T12:21:46;14.15;;;8.05;;
26702;SDS011;14316;51.074;3.704;2023-05-31T12:24:15;16.27;;;7.95;;
26702;SDS011;14316;51.074;3.704;2023-05-31T12:26:46;14.00;;;7.57;;
26702;SDS011;14316;51.074;3.704;2023-05-31T12:29:16;11.45;;;6.53;;
26702;SDS011;14316;51.074;3.704;2023-05-31T12:31:43;16.35;;;7.97;;
26702;SDS011;14316;51.074;3.704;2023-05-31T12:34:16;15.20;;;7.70;;
26702;SDS011;14316;51.074;3.704;2023-05-31T12:36:46;9.63;;;6.90;;
26702;SDS011;14316;51.074;3.704;2023-05-31T12:41:42;12.80;;;6.57;;
26702;SDS011;14316;51.074;3.704;2023-05-31T12:44:08;17.55;;;9.15;;
26702;SDS011;14316;51.074;3.704;2023-05-31T12:46:40;17.23;;;7.60;;
26702;SDS011;14316;51.074;3.704;2023-05-31T12:49:18;11.75;;;6.43;;
26702;SDS011;14316;51.074;3.704;2023-05-31T12:51:48;10.67;;;5.30;;
26702;SDS011;14316;51.074;3.704;2023-05-31T12:54:24;15.00;;;6.38;;
26702;SDS011;14316;51.074;3.704;2023-05-31T12:56:51;8.70;;;4.20;;
26702;SDS011;14316;51.074;3.704;2023-05-31T12:59:16;8.95;;;4.65;;
26702;SDS011;14316;51.074;3.704;2023-05-31T13:01:43;9.23;;;4.82;;
26702;SDS011;14316;51.074;3.704;2023-05-31T13:04:09;13.85;;;6.35;;
26702;SDS011;14316;51.074;3.704;2023-05-31T13:06:37;8.35;;;4.90;;
26702;SDS011;14316;51.074;3.704;2023-05-31T13:09:03;9.32;;;4.63;;
26702;SDS011;14316;51.074;3.704;2023-05-31T13:11:33;9.82;;;4.70;;
26702;SDS011;14316;51.074;3.704;2023-05-31T13:13:59;7.72;;;4.68;;
26702;SDS011;14316;51.074;3.704;2023-05-31T13:16:26;7.40;;;4.60;;
26702;SDS011;14316;51.074;3.704;2023-05-31T13:18:52;9.55;;;4.97;;
26702;SDS011;14316;51.074;3.704;2023-05-31T13:21:17;6.95;;;4.25;;
26702;SDS011;14316;51.074;3.704;2023-05-31T13:23:43;13.20;;;4.72;;
26702;SDS011;14316;51.074;3.704;2023-05-31T13:26:09;10.15;;;6.20;;
26702;SDS011;14316;51.074;3.704;2023-05-31T13:28:35;10.40;;;4.43;;
26702;SDS011;14316;51.074;3.704;2023-05-31T13:31:01;7.95;;;4.72;;
26702;SDS011;14316;51.074;3.704;2023-05-31T13:33:27;13.15;;;4.72;;
26702;SDS011;14316;51.074;3.704;2023-05-31T13:35:53;11.15;;;4.82;;
26702;SDS011;14316;51.074;3.704;2023-05-31T13:38:22;10.38;;;4.28;;
26702;SDS011;14316;51.074;3.704;2023-05-31T13:40:48;8.85;;;4.53;;
26702;SDS011;14316;51.074;3.704;2023-05-31T13:43:21;9.40;;;3.88;;
26702;SDS011;14316;51.074;3.704;2023-05-31T13:45:51;10.95;;;3.80;;
26702;SDS011;14316;51.074;3.704;2023-05-31T13:48:17;10.93;;;4.60;;
26702;SDS011;14316;51.074;3.704;2023-05-31T13:50:43;7.35;;;4.00;;
26702;SDS011;14316;51.074;3.704;2023-05-31T13:53:09;14.05;;;5.10;;
26702;SDS011;14316;51.074;3.704;2023-05-31T13:55:36;7.75;;;4.20;;
26702;SDS011;14316;51.074;3.704;2023-05-31T13:58:03;11.18;;;3.70;;
26702;SDS011;14316;51.074;3.704;2023-05-31T14:00:32;11.65;;;4.30;;
26702;SDS011;14316;51.074;3.704;2023-05-31T14:02:58;8.07;;;4.30;;
26702;SDS011;14316;51.074;3.704;2023-05-31T14:05:24;8.32;;;4.00;;
26702;SDS011;14316;51.074;3.704;2023-05-31T14:07:53;7.95;;;3.75;;
26702;SDS011;14316;51.074;3.704;2023-05-31T14:10:19;7.25;;;4.30;;
26702;SDS011;14316;51.074;3.704;2023-05-31T14:12:45;10.23;;;4.00;;
26702;SDS011;14316;51.074;3.704;2023-05-31T14:15:13;7.25;;;4.10;;
26702;SDS011;14316;51.074;3.704;2023-05-31T14:17:39;11.63;;;4.28;;
26702;SDS011;14316;51.074;3.704;2023-05-31T14:20:05;10.20;;;5.00;;
26702;SDS011;14316;51.074;3.704;2023-05-31T14:22:31;12.02;;;4.35;;
26702;SDS011;14316;51.074;3.704;2023-05-31T14:24:57;10.10;;;4.50;;
26702;SDS011;14316;51.074;3.704;2023-05-31T14:27:23;8.82;;;4.45;;
26702;SDS011;14316;51.074;3.704;2023-05-31T14:29:48;11.43;;;4.22;;
26702;SDS011;14316;51.074;3.704;2023-05-31T14:32:14;8.27;;;4.43;;
26702;SDS011;14316;51.074;3.704;2023-05-31T14:34:41;9.98;;;4.40;;
26702;SDS011;14316;51.074;3.704;2023-05-31T14:37:08;9.65;;;4.75;;
26702;SDS011;14316;51.074;3.704;2023-05-31T14:39:34;8.75;;;3.65;;
26702;SDS011;14316;51.074;3.704;2023-05-31T14:41:59;9.88;;;4.28;;
26702;SDS011;14316;51.074;3.704;2023-05-31T14:44:25;13.00;;;4.75;;
26702;SDS011;14316;51.074;3.704;2023-05-31T14:46:51;13.18;;;5.13;;
26702;SDS011;14316;51.074;3.704;2023-05-31T14:49:21;9.93;;;4.80;;
26702;SDS011;14316;51.074;3.704;2023-05-31T14:51:47;9.68;;;4.40;;
26702;SDS011;14316;51.074;3.704;2023-05-31T14:54:14;12.25;;;4.35;;
26702;SDS011;14316;51.074;3.704;2023-05-31T14:56:42;12.32;;;4.50;;
26702;SDS011;14316;51.074;3.704;2023-05-31T14:59:08;10.48;;;3.92;;
26702;SDS011;14316;51.074;3.704;2023-05-31T15:01:33;7.18;;;3.70;;
26702;SDS011;14316;51.074;3.704;2023-05-31T15:03:59;7.80;;;4.10;;
26702;SDS011;14316;51.074;3.704;2023-05-31T15:06:27;8.68;;;3.85;;
26702;SDS011;14316;51.074;3.704;2023-05-31T15:08:55;13.18;;;4.20;;